createdAt,value
2022-09-14T00:01:37.392Z,52.62
2022-09-14T00:04:08.973Z,52.84
2022-09-14T00:06:37.155Z,52.71
2022-09-14T00:09:11.057Z,52.10
2022-09-14T00:11:38.928Z,52.52
2022-09-14T00:14:06.930Z,51.47
2022-09-14T00:16:40.082Z,53.37
2022-09-14T00:19:16.133Z,53.44
2022-09-14T00:21:43.783Z,54.17
2022-09-14T00:24:12.207Z,52.46
2022-09-14T00:26:39.816Z,53.96
2022-09-14T00:29:07.511Z,54.15
2022-09-14T00:31:38.263Z,55.40
2022-09-14T00:34:08.788Z,55.50
2022-09-14T00:36:43.431Z,55.35
2022-09-14T00:39:12.175Z,55.07
2022-09-14T00:41:43.398Z,54.57
2022-09-14T00:44:10.860Z,54.44
2022-09-14T00:46:39.671Z,54.27
2022-09-14T00:49:20.713Z,53.11
2022-09-14T00:52:11.075Z,54.76
2022-09-14T00:54:45.472Z,54.92
2022-09-14T00:57:14.261Z,53.82
2022-09-14T00:59:44.042Z,53.92
2022-09-14T01:02:15.036Z,54.80
2022-09-14T01:04:43.704Z,55.66
2022-09-14T01:07:30.464Z,54.84
2022-09-14T01:10:15.826Z,54.92
2022-09-14T01:12:46.450Z,54.29
2022-09-14T01:15:20.299Z,54.48
2022-09-14T01:17:57.649Z,53.85
2022-09-14T01:20:45.562Z,54.57
2022-09-14T01:23:18.706Z,55.51
2022-09-14T01:26:16.265Z,54.88
2022-09-14T01:28:58.624Z,54.58
2022-09-14T01:31:36.563Z,53.93
2022-09-14T01:34:16.134Z,53.94
2022-09-14T01:36:51.805Z,54.48
2022-09-14T01:39:22.076Z,55.24
2022-09-14T01:41:52.643Z,54.27
2022-09-14T01:44:27.612Z,55.26
2022-09-14T01:47:00.817Z,54.93
2022-09-14T01:49:38.179Z,54.83
2022-09-14T01:52:12.863Z,54.01
2022-09-14T01:54:49.222Z,54.84
2022-09-14T01:57:17.056Z,55.52
2022-09-14T01:59:46.672Z,55.47
2022-09-14T02:02:17.224Z,55.54
2022-09-14T02:04:59.388Z,55.42
2022-09-14T02:07:27.544Z,54.54
2022-09-14T02:09:56.413Z,55.61
2022-09-14T02:12:24.183Z,56.25
2022-09-14T02:14:54.016Z,54.79
2022-09-14T02:17:22.520Z,56.04
2022-09-14T02:19:57.212Z,56.03
2022-09-14T02:22:30.439Z,57.62
2022-09-14T02:24:58.386Z,55.76
2022-09-14T02:27:26.383Z,55.80
2022-09-14T02:29:54.337Z,54.99
2022-09-14T02:33:03.458Z,55.91
2022-09-14T02:36:25.472Z,55.82
2022-09-14T02:38:59.613Z,55.47
2022-09-14T02:41:51.428Z,57.86
2022-09-14T02:44:42.221Z,56.55
2022-09-14T02:47:12.804Z,56.81
2022-09-14T02:49:59.847Z,57.50
2022-09-14T02:52:35.477Z,56.78
2022-09-14T02:55:11.172Z,56.05
2022-09-14T02:58:04.142Z,56.87
2022-09-14T03:00:36.249Z,55.89
2022-09-14T03:03:05.743Z,56.74
2022-09-14T03:05:34.201Z,57.37
2022-09-14T03:08:03.102Z,59.05
2022-09-14T03:10:32.715Z,59.04
2022-09-14T03:13:00.668Z,56.55
2022-09-14T03:15:29.119Z,57.24
2022-09-14T03:17:57.036Z,57.96
2022-09-14T03:20:27.800Z,59.82
2022-09-14T03:22:55.741Z,56.70
2022-09-14T03:25:23.533Z,57.79
2022-09-14T03:27:53.694Z,57.64
2022-09-14T03:30:21.850Z,59.26
2022-09-14T03:32:49.835Z,59.53
2022-09-14T03:35:18.167Z,60.23
2022-09-14T03:37:46.842Z,57.69
2022-09-14T03:40:21.400Z,58.27
2022-09-14T03:42:51.046Z,59.77
2022-09-14T03:45:20.315Z,59.60
2022-09-14T03:47:48.913Z,59.73
2022-09-14T03:50:17.977Z,61.83
2022-09-14T03:52:46.118Z,59.81
2022-09-14T03:55:14.183Z,60.12
2022-09-14T03:57:41.798Z,59.43
2022-09-14T04:00:11.444Z,60.25
2022-09-14T04:02:40.106Z,61.58
2022-09-14T04:05:08.090Z,61.13
2022-09-14T04:07:35.860Z,60.09
2022-09-14T04:10:05.776Z,63.56
2022-09-14T04:12:40.548Z,62.30
2022-09-14T04:15:09.073Z,61.87
2022-09-14T04:17:36.638Z,62.26
2022-09-14T04:20:04.707Z,62.24
2022-09-14T04:22:34.033Z,60.34
2022-09-14T04:25:02.052Z,60.11
2022-09-14T04:27:30.888Z,62.86
2022-09-14T04:29:58.845Z,61.42
2022-09-14T04:32:29.622Z,61.89
2022-09-14T04:35:00.814Z,64.73
2022-09-14T04:37:31.918Z,62.97
2022-09-14T04:40:00.014Z,62.68
2022-09-14T04:42:27.647Z,62.00
2022-09-14T04:44:55.213Z,62.86
2022-09-14T04:47:26.024Z,62.99
2022-09-14T04:49:56.352Z,64.18
2022-09-14T04:52:24.832Z,63.06
2022-09-14T04:54:52.357Z,64.15
2022-09-14T04:57:19.904Z,63.80
2022-09-14T04:59:48.381Z,61.43
2022-09-14T05:02:16.060Z,61.97
2022-09-14T05:04:43.903Z,61.80
2022-09-14T05:07:12.101Z,62.09
2022-09-14T05:09:39.761Z,60.49
2022-09-14T05:12:07.695Z,60.03
2022-09-14T05:14:35.739Z,59.50
2022-09-14T05:17:06.599Z,58.90
2022-09-14T05:19:35.223Z,58.95
2022-09-14T05:22:04.324Z,58.62
2022-09-14T05:24:31.975Z,57.67
2022-09-14T05:27:01.093Z,56.84
2022-09-14T05:29:31.902Z,56.84
2022-09-14T05:32:00.121Z,56.92
2022-09-14T05:34:27.692Z,58.81
2022-09-14T05:36:55.490Z,54.93
2022-09-14T05:39:25.072Z,54.82
2022-09-14T05:41:52.822Z,55.47
2022-09-14T05:44:20.957Z,56.05
2022-09-14T05:46:49.311Z,53.94
2022-09-14T05:49:18.118Z,54.20
2022-09-14T05:51:46.404Z,53.84
2022-09-14T05:54:13.974Z,53.85
2022-09-14T05:56:41.818Z,53.43
2022-09-14T05:59:11.021Z,53.43
2022-09-14T06:01:39.353Z,52.21
2022-09-14T06:04:10.296Z,52.88
2022-09-14T06:06:38.134Z,52.44
2022-09-14T06:09:06.033Z,53.24
2022-09-14T06:11:36.456Z,54.42
2022-09-14T06:14:05.400Z,53.59
2022-09-14T06:16:33.645Z,52.34
2022-09-14T06:19:01.749Z,53.32
2022-09-14T06:21:34.575Z,53.21
2022-09-14T06:24:02.849Z,51.93
2022-09-14T06:26:31.043Z,52.90
2022-09-14T06:28:58.688Z,53.34
2022-09-14T06:31:26.724Z,52.21
2022-09-14T06:33:54.471Z,52.47
2022-09-14T06:36:27.401Z,51.58
2022-09-14T06:38:56.206Z,51.56
2022-09-14T06:41:29.110Z,50.35
2022-09-14T06:43:59.019Z,50.04
2022-09-14T06:46:29.864Z,50.00
2022-09-14T06:48:59.533Z,50.12
2022-09-14T06:51:39.344Z,50.44
2022-09-14T06:54:07.759Z,50.34
2022-09-14T06:56:37.911Z,50.79
2022-09-14T06:59:11.440Z,49.25
2022-09-14T07:01:40.026Z,49.17
2022-09-14T07:04:08.100Z,50.11
2022-09-14T07:06:41.851Z,48.56
2022-09-14T07:09:10.312Z,48.76
2022-09-14T07:11:38.760Z,48.31
2022-09-14T07:14:07.120Z,47.68
2022-09-14T07:16:37.218Z,47.57
2022-09-14T07:19:10.130Z,49.10
2022-09-14T07:21:38.322Z,49.14
2022-09-14T07:24:06.568Z,49.04
2022-09-14T07:26:44.832Z,49.32
2022-09-14T07:29:15.907Z,48.49
2022-09-14T07:31:51.028Z,48.46
2022-09-14T07:34:21.909Z,49.06
2022-09-14T07:36:49.538Z,48.17
2022-09-14T07:39:18.231Z,48.94
2022-09-14T07:41:46.970Z,49.47
2022-09-14T07:44:17.338Z,49.32
2022-09-14T07:46:46.537Z,48.47
2022-09-14T07:49:15.739Z,48.87
2022-09-14T07:51:43.524Z,48.86
2022-09-14T07:54:13.573Z,49.21
2022-09-14T07:56:43.195Z,48.81
2022-09-14T07:59:34.438Z,48.47
2022-09-14T08:02:02.183Z,47.84
2022-09-14T08:04:29.676Z,47.29
2022-09-14T08:06:59.752Z,47.25
2022-09-14T08:09:28.017Z,47.43
2022-09-14T08:11:55.411Z,46.77
2022-09-14T08:14:23.792Z,47.41
2022-09-14T08:16:51.407Z,47.30
2022-09-14T08:19:21.155Z,46.41
2022-09-14T08:21:49.222Z,47.26
2022-09-14T08:24:20.096Z,47.77
2022-09-14T08:26:49.823Z,47.88
2022-09-14T08:29:18.780Z,48.85
2022-09-14T08:31:47.463Z,47.70
2022-09-14T08:34:16.546Z,47.98
2022-09-14T08:36:46.231Z,48.89
2022-09-14T08:39:15.938Z,48.35
2022-09-14T08:41:59.136Z,47.98
2022-09-14T08:44:47.554Z,49.20
2022-09-14T08:47:26.589Z,49.00
2022-09-14T08:50:17.277Z,49.34
2022-09-14T08:52:48.937Z,48.98
2022-09-14T08:55:19.473Z,49.50
2022-09-14T08:58:01.027Z,49.66
2022-09-14T09:00:49.951Z,49.33
2022-09-14T09:03:42.353Z,49.04
2022-09-14T09:06:12.863Z,48.91
2022-09-14T09:09:07.677Z,49.34
2022-09-14T09:11:47.057Z,48.83
2022-09-14T09:14:21.335Z,49.11
2022-09-14T09:16:53.006Z,49.30
2022-09-14T09:19:30.097Z,48.09
2022-09-14T09:22:01.242Z,49.24
2022-09-14T09:24:43.516Z,49.04
2022-09-14T09:27:13.028Z,49.10
2022-09-14T09:29:41.160Z,48.84
2022-09-14T09:32:20.925Z,48.68
2022-09-14T09:34:50.249Z,48.60
2022-09-14T09:37:23.117Z,48.11
2022-09-14T09:39:51.525Z,48.47
2022-09-14T09:42:25.411Z,48.28
2022-09-14T09:45:03.942Z,47.83
2022-09-14T09:47:38.712Z,48.73
2022-09-14T09:50:18.849Z,49.79
2022-09-14T09:52:54.733Z,49.58
2022-09-14T09:55:26.612Z,49.93
2022-09-14T09:57:54.980Z,50.27
2022-09-14T10:00:29.705Z,51.19
2022-09-14T10:02:57.832Z,52.69
2022-09-14T10:05:31.621Z,54.25
2022-09-14T10:08:08.050Z,55.49
2022-09-14T10:10:42.938Z,54.84
2022-09-14T10:13:38.877Z,56.70
2022-09-14T10:16:17.400Z,57.33
2022-09-14T10:18:50.699Z,56.87
2022-09-14T10:21:20.461Z,55.77
2022-09-14T10:24:03.624Z,56.72
2022-09-14T10:26:36.169Z,57.54
2022-09-14T10:29:27.649Z,56.36
2022-09-14T10:32:05.424Z,56.69
2022-09-14T10:34:36.231Z,55.88
2022-09-14T10:37:33.422Z,55.11
2022-09-14T10:40:19.298Z,55.49
2022-09-14T10:42:52.913Z,55.53
2022-09-14T10:45:36.125Z,55.10
2022-09-14T10:48:22.447Z,53.20
2022-09-14T10:51:32.735Z,52.56
2022-09-14T10:54:14.167Z,53.00
2022-09-14T10:57:13.989Z,54.11
2022-09-14T10:59:56.626Z,54.01
2022-09-14T11:02:39.335Z,53.95
2022-09-14T11:05:12.876Z,53.33
2022-09-14T11:08:02.003Z,53.00
2022-09-14T11:10:32.355Z,52.51
2022-09-14T11:13:41.733Z,53.12
2022-09-14T11:16:34.824Z,52.71
2022-09-14T11:19:30.204Z,51.74
2022-09-14T11:22:12.943Z,52.21
2022-09-14T11:24:51.180Z,52.79
2022-09-14T11:27:28.491Z,53.12
2022-09-14T11:30:05.466Z,52.67
2022-09-14T11:32:32.994Z,52.99
2022-09-14T11:35:11.835Z,52.95
2022-09-14T11:37:45.338Z,54.09
2022-09-14T11:40:16.695Z,54.61
2022-09-14T11:43:13.472Z,55.39
2022-09-14T11:45:46.866Z,55.47
2022-09-14T11:48:41.944Z,56.92
2022-09-14T11:51:15.354Z,56.42
2022-09-14T11:53:44.161Z,56.88
2022-09-14T11:56:33.317Z,57.16
2022-09-14T11:59:06.694Z,57.37
2022-09-14T12:01:36.910Z,56.69
2022-09-14T12:04:08.719Z,55.78
2022-09-14T12:06:36.281Z,56.37
2022-09-14T12:09:13.223Z,56.32
2022-09-14T12:11:42.536Z,56.34
2022-09-14T12:14:30.316Z,56.95
2022-09-14T12:17:17.648Z,56.48
2022-09-14T12:20:29.435Z,56.81
2022-09-14T12:23:06.703Z,56.89
2022-09-14T12:25:35.090Z,55.99
2022-09-14T12:28:03.032Z,54.83
2022-09-14T12:30:40.542Z,56.39
2022-09-14T12:33:35.770Z,54.67
2022-09-14T12:36:26.742Z,54.36
2022-09-14T12:38:55.169Z,55.47
2022-09-14T12:41:22.682Z,54.84
2022-09-14T12:43:50.626Z,53.46
2022-09-14T12:46:21.256Z,52.71
2022-09-14T12:48:49.033Z,53.29
2022-09-14T12:51:25.519Z,51.55
2022-09-14T12:54:02.673Z,52.34
2022-09-14T12:56:59.661Z,51.64
2022-09-14T12:59:46.199Z,51.40
2022-09-14T13:02:47.501Z,51.08
2022-09-14T13:05:23.814Z,50.16
2022-09-14T13:07:52.144Z,50.02
2022-09-14T13:10:38.169Z,50.16
2022-09-14T13:13:14.364Z,50.61
2022-09-14T13:15:52.467Z,49.54
2022-09-14T13:18:22.906Z,49.55
2022-09-14T13:20:53.420Z,49.63
2022-09-14T13:23:42.120Z,49.40
2022-09-14T13:26:22.890Z,48.15
2022-09-14T13:28:55.001Z,48.41
2022-09-14T13:31:27.733Z,48.76
2022-09-14T13:33:56.273Z,48.32
2022-09-14T13:36:28.802Z,47.77
2022-09-14T13:39:01.569Z,48.75
2022-09-14T13:41:31.433Z,49.12
2022-09-14T13:44:00.534Z,47.50
2022-09-14T13:46:28.583Z,47.77
2022-09-14T13:48:56.860Z,48.03
2022-09-14T13:51:27.337Z,47.86
2022-09-14T13:54:15.629Z,48.21
2022-09-14T13:56:43.528Z,47.25
2022-09-14T13:59:29.330Z,47.37
2022-09-14T14:02:00.997Z,47.92
2022-09-14T14:04:36.126Z,47.62
2022-09-14T14:07:12.870Z,47.77
2022-09-14T14:09:49.114Z,46.71
2022-09-14T14:12:26.425Z,46.97
2022-09-14T14:14:58.758Z,47.17
2022-09-14T14:17:29.252Z,46.16
2022-09-14T14:20:21.132Z,47.46
2022-09-14T14:23:10.598Z,46.68
2022-09-14T14:25:45.841Z,46.93
2022-09-14T14:28:28.233Z,46.13
2022-09-14T14:31:07.863Z,46.30
2022-09-14T14:33:47.587Z,46.55
2022-09-14T14:36:15.529Z,46.53
2022-09-14T14:38:44.277Z,46.43
2022-09-14T14:41:18.293Z,47.15
2022-09-14T14:43:47.565Z,45.96
2022-09-14T14:46:18.433Z,46.15
2022-09-14T14:48:46.511Z,46.34
2022-09-14T14:51:15.201Z,46.79
2022-09-14T14:53:43.446Z,46.46
2022-09-14T14:56:13.400Z,46.58
2022-09-14T14:58:46.530Z,46.99
2022-09-14T15:01:14.601Z,48.30
2022-09-14T15:03:42.429Z,47.69
2022-09-14T15:06:23.835Z,47.20
2022-09-14T15:08:56.614Z,46.73
2022-09-14T15:11:24.291Z,46.63
2022-09-14T15:13:52.404Z,46.57
2022-09-14T15:16:20.035Z,46.23
2022-09-14T15:18:47.727Z,46.68
2022-09-14T15:21:18.385Z,46.78
2022-09-14T15:23:45.921Z,47.10
2022-09-14T15:26:13.502Z,48.75
2022-09-14T15:28:41.372Z,48.40
2022-09-14T15:31:09.131Z,49.06
2022-09-14T15:33:36.678Z,49.49
2022-09-14T15:36:04.776Z,48.99
2022-09-14T15:38:32.340Z,50.02
2022-09-14T15:40:59.912Z,50.50
2022-09-14T15:43:27.803Z,49.81
2022-09-14T15:45:55.722Z,49.86
2022-09-14T15:48:23.348Z,49.48
2022-09-14T15:50:51.145Z,50.17
2022-09-14T15:53:19.004Z,49.57
2022-09-14T15:55:47.216Z,50.09
2022-09-14T15:58:15.218Z,49.24
2022-09-14T16:00:44.710Z,49.04
2022-09-14T16:03:13.028Z,49.42
2022-09-14T16:05:40.674Z,49.78
2022-09-14T16:08:08.422Z,50.98
2022-09-14T16:10:36.830Z,50.74
2022-09-14T16:13:05.685Z,50.30
2022-09-14T16:15:33.437Z,50.34
2022-09-14T16:18:01.314Z,50.80
2022-09-14T16:20:29.402Z,50.35
2022-09-14T16:22:57.007Z,51.33
2022-09-14T16:25:24.876Z,50.80
2022-09-14T16:27:52.701Z,51.07
2022-09-14T16:30:20.344Z,50.83
2022-09-14T16:32:48.766Z,51.82
2022-09-14T16:35:16.418Z,50.75
2022-09-14T16:37:44.048Z,51.99
2022-09-14T16:40:15.240Z,52.30
2022-09-14T16:42:43.028Z,51.03
2022-09-14T16:45:10.651Z,51.12
2022-09-14T16:47:38.763Z,52.10
2022-09-14T16:50:07.117Z,51.19
2022-09-14T16:52:34.690Z,51.72
2022-09-14T16:55:02.556Z,52.09
2022-09-14T16:57:30.304Z,52.07
2022-09-14T16:59:58.053Z,52.56
2022-09-14T17:02:26.120Z,51.69
2022-09-14T17:04:54.005Z,52.94
2022-09-14T17:07:22.409Z,52.76
2022-09-14T17:09:50.375Z,52.51
2022-09-14T17:12:17.961Z,54.29
2022-09-14T17:14:46.770Z,55.13
2022-09-14T17:17:14.638Z,56.17
2022-09-14T17:19:43.881Z,55.55
2022-09-14T17:22:11.655Z,55.99
2022-09-14T17:24:40.052Z,56.52
2022-09-14T17:27:11.006Z,56.44
2022-09-14T17:29:40.794Z,56.64
2022-09-14T17:32:12.510Z,54.92
2022-09-14T17:34:43.138Z,56.94
2022-09-14T17:37:10.839Z,56.66
2022-09-14T17:39:38.419Z,57.39
2022-09-14T17:42:06.398Z,57.45
2022-09-14T17:44:34.006Z,57.56
2022-09-14T17:47:01.802Z,57.28
2022-09-14T17:49:29.724Z,57.23
2022-09-14T17:51:57.350Z,57.98
2022-09-14T17:54:24.878Z,57.84
2022-09-14T17:56:52.736Z,58.19
2022-09-14T17:59:21.159Z,58.41
2022-09-14T18:01:50.082Z,57.33
2022-09-14T18:04:18.951Z,59.56
2022-09-14T18:06:48.401Z,57.93
2022-09-14T18:09:19.185Z,57.77
2022-09-14T18:11:48.334Z,58.85
2022-09-14T18:14:16.698Z,57.59
2022-09-14T18:16:45.252Z,59.38
2022-09-14T18:19:14.061Z,59.95
2022-09-14T18:21:42.602Z,59.63
2022-09-14T18:24:11.628Z,58.85
2022-09-14T18:26:39.712Z,59.20
2022-09-14T18:29:07.584Z,60.43
2022-09-14T18:31:35.346Z,61.19
2022-09-14T18:34:03.510Z,60.78
2022-09-14T18:36:31.099Z,60.39
2022-09-14T18:38:59.176Z,59.37
2022-09-14T18:41:33.975Z,59.43
2022-09-14T18:44:02.238Z,58.35
2022-09-14T18:46:30.817Z,58.97
2022-09-14T18:49:00.894Z,58.92
2022-09-14T18:51:30.770Z,58.81
2022-09-14T18:54:01.182Z,58.55
2022-09-14T18:56:29.789Z,59.17
2022-09-14T18:58:57.495Z,58.81
2022-09-14T19:01:27.421Z,59.67
2022-09-14T19:03:56.113Z,59.30
2022-09-14T19:06:24.067Z,59.57
2022-09-14T19:08:52.152Z,60.07
2022-09-14T19:11:22.859Z,60.33
2022-09-14T19:14:01.430Z,60.09
2022-09-14T19:16:30.494Z,60.94
2022-09-14T19:18:58.720Z,60.67
2022-09-14T19:21:31.184Z,60.94
2022-09-14T19:24:04.573Z,60.64
2022-09-14T19:26:34.892Z,60.44
2022-09-14T19:29:03.670Z,60.49
2022-09-14T19:31:31.472Z,61.16
2022-09-14T19:34:00.433Z,61.39
2022-09-14T19:36:29.261Z,61.58
2022-09-14T19:39:01.453Z,61.55
2022-09-14T19:41:52.428Z,61.04
2022-09-14T19:44:39.839Z,61.41
2022-09-14T19:47:07.879Z,61.56
2022-09-14T19:49:35.504Z,61.78
2022-09-14T19:52:03.483Z,61.93
2022-09-14T19:54:31.548Z,61.75
2022-09-14T19:56:59.300Z,61.36
2022-09-14T19:59:27.274Z,62.05
2022-09-14T20:01:55.430Z,61.41
2022-09-14T20:04:23.781Z,61.53
2022-09-14T20:06:51.730Z,61.77
2022-09-14T20:09:22.470Z,61.98
2022-09-14T20:11:52.758Z,62.03
2022-09-14T20:14:23.108Z,61.72
2022-09-14T20:16:55.254Z,61.71
2022-09-14T20:19:25.430Z,62.49
2022-09-14T20:21:54.419Z,62.50
2022-09-14T20:24:27.638Z,62.19
2022-09-14T20:26:58.865Z,62.25
2022-09-14T20:29:31.241Z,62.58
2022-09-14T20:31:59.769Z,63.29
2022-09-14T20:34:27.441Z,63.13
2022-09-14T20:36:55.705Z,62.63
2022-09-14T20:39:24.366Z,62.44
2022-09-14T20:41:53.181Z,62.80
2022-09-14T20:44:25.996Z,62.45
2022-09-14T20:46:53.835Z,63.81
2022-09-14T20:49:23.346Z,63.30
2022-09-14T20:51:52.783Z,62.51
2022-09-14T20:54:21.047Z,62.32
2022-09-14T20:56:48.762Z,62.26
2022-09-14T20:59:19.201Z,60.87
2022-09-14T21:01:49.524Z,61.41
2022-09-14T21:04:20.194Z,62.17
2022-09-14T21:06:51.975Z,61.34
2022-09-14T21:09:22.761Z,62.14
2022-09-14T21:11:52.479Z,62.20
2022-09-14T21:14:21.517Z,61.92
2022-09-14T21:16:52.324Z,61.67
2022-09-14T21:19:24.396Z,61.89
2022-09-14T21:21:52.180Z,61.74
2022-09-14T21:24:21.965Z,61.70
2022-09-14T21:26:50.024Z,61.33
2022-09-14T21:29:23.885Z,61.64
2022-09-14T21:31:52.980Z,61.43
2022-09-14T21:34:21.050Z,61.94
2022-09-14T21:36:51.264Z,61.97
2022-09-14T21:39:25.224Z,61.71
2022-09-14T21:41:58.809Z,61.37
2022-09-14T21:44:32.230Z,61.65
2022-09-14T21:47:01.119Z,61.32
2022-09-14T21:49:29.443Z,61.05
2022-09-14T21:51:57.411Z,61.71
2022-09-14T21:54:25.630Z,61.61
2022-09-14T21:56:54.023Z,61.71
2022-09-14T21:59:22.992Z,61.37
2022-09-14T22:01:51.672Z,62.79
2022-09-14T22:04:23.347Z,62.55
2022-09-14T22:06:51.912Z,62.78
2022-09-14T22:09:22.369Z,62.61
2022-09-14T22:11:50.566Z,62.34
2022-09-14T22:14:21.627Z,62.07
2022-09-14T22:16:50.050Z,61.73
2022-09-14T22:19:20.842Z,62.00
2022-09-14T22:21:49.286Z,62.69
2022-09-14T22:24:21.043Z,62.05
2022-09-14T22:26:50.482Z,61.27
2022-09-14T22:29:19.242Z,61.55
2022-09-14T22:31:47.958Z,61.34
2022-09-14T22:34:16.928Z,63.15
2022-09-14T22:36:45.665Z,63.44
2022-09-14T22:39:51.007Z,63.79
2022-09-14T22:42:37.580Z,64.09
2022-09-14T22:45:07.070Z,63.33
2022-09-14T22:47:35.904Z,64.96
2022-09-14T22:50:04.059Z,63.98
2022-09-14T22:52:32.708Z,64.14
2022-09-14T22:55:00.804Z,63.73
2022-09-14T22:57:28.822Z,63.97
2022-09-14T22:59:57.210Z,63.80
2022-09-14T23:02:25.362Z,63.84
2022-09-14T23:04:53.161Z,64.17
2022-09-14T23:07:22.565Z,64.90
2022-09-14T23:09:50.440Z,64.29
2022-09-14T23:12:18.557Z,64.73
2022-09-14T23:14:46.905Z,65.17
2022-09-14T23:17:15.340Z,64.12
2022-09-14T23:19:43.291Z,63.87
2022-09-14T23:22:11.767Z,63.41
2022-09-14T23:24:39.731Z,64.04
2022-09-14T23:27:07.704Z,64.67
2022-09-14T23:29:36.083Z,64.30
2022-09-14T23:32:04.301Z,64.99
2022-09-14T23:34:32.803Z,64.32
2022-09-14T23:37:01.866Z,65.62
2022-09-14T23:39:30.288Z,64.46
2022-09-14T23:41:59.030Z,64.75
2022-09-14T23:44:27.365Z,64.98
2022-09-14T23:46:55.309Z,65.10
2022-09-14T23:49:23.217Z,65.76
2022-09-14T23:51:51.824Z,65.20
2022-09-14T23:54:20.500Z,66.16
2022-09-14T23:56:48.490Z,65.65
2022-09-14T23:59:16.680Z,66.05
